SARP/PSS METAR and TAF weather

Enter ICAO airport designator
Station Type Date Time Source
SARP METAR 2019/08/25 02:00 UTC NOAA

SARP 250200Z 09005KT CAVOK 18/12 Q1019


Station Type Date Time Source
SARP Decoded METAR 2019/08/25 02:00 UTC NOAA

Station name not available
Aug 24, 2019 - 10:00 PM EDT / 2019.08.25 0200 UTC
Wind: from the E (090 degrees) at 6 MPH (5 KT):0
Visibility: greater than 7 mile(s):0
Temperature: 64 F (18 C)
Dew Point: 53 F (12 C)
Relative Humidity: 67%
Pressure (altimeter): 30.09 in. Hg (1019 hPa)
ob: SARP 250200Z 09005KT CAVOK 18/12 Q1019
cycle: 2

Station Type Date Time Source
SARP TAF 2019/08/25 00:00 UTC NOAA

TAF SARP 242300Z 2500/2524 09005KT CAVOK TX27/2518Z TN14/2510Z
BECMG 2506/2508 8000 NSC
BECMG 2512/2514 05010KT SCT025
BECMG 2521/2523 CAVOK

Example: see airport list